AirNav   Bose Proflight Series 2 Wireless Aviation Headset
 
 1460 users online  

32MI William Beaumont Hospital Heliport
Royal Oak, Michigan, USA

GOING TO ROYAL OAK?


FAA INFORMATION EFFECTIVE 07 NOVEMBER 2019

Location

FAA Identifier: 32MI
Lat/Long: 42-30-54.2800N 083-11-39.0000W
42-30.904667N 083-11.650000W
42.5150778,-83.1941667
(estimated)
Elevation: 771 ft. / 235 m (estimated)
Variation: 06W (1990)
From city: 1 mile W of ROYAL OAK, MI
Time zone: UTC -5 (UTC -4 during Daylight Saving Time)
Zip code: 48073

Heliport Operations

Heliport use: Private use, MEDICAL USE.
Activation date: 03/1993
Control tower: no
ARTCC: CLEVELAND CENTER
FSS: LANSING FLIGHT SERVICE STATION
Attendance: CONTINUOUS
Segmented circle: no
Lights: SS-SR

Heliport Communications

WX AWOS-3 at VLL (1.8 nm NE): 119.475 (248-288-4649)
WX ASOS at DET (10 nm SE): PHONE 313-371-9696
WX ASOS at PTK (13 nm NW): 125.025 (248-886-8551)
WX ASOS at DTW (19 nm S): PHONE 734-955-5015

Nearby radio navigation aids

VOR radial/distance  VOR name  Freq  Var
SVMr073/18.8SALEM VORTAC114.3003W
DXOr029/19.7DETROIT VOR/DME113.4006W
YQGr321/22.7WINDSOR VOR/DME113.8006W
CRLr026/30.4CARLETON VOR/DME115.7003W
FNTr144/36.4FLINT VORTAC116.9006W

 
NDB name  Hdg/Dist  Freq  Var  ID
GROSSE ILE003/24.941907WRYS .-. -.-- ...

Heliport Services

Runway Information

Helipad H1

Dimensions: 53 x 53 ft. / 16 x 16 m
Surface: concrete
Runway edge lights: PERI
Latitude: 42-30.904667N
Longitude: 083-11.650000W
Elevation: 771.0 ft.
Traffic pattern: leftleft
Obstructions: bldg
H1 116 FT BLDG 120 FT E; 130 FT CHIMNEYS 235 FT S; 33 FT LGT POLES IN VCNTY.

Heliport Ownership and Management from official FAA records

Ownership: Privately-owned
Owner: WILLIAM BEAUMONT HOSPITAL
3601 W 13 MILE RD
ROYAL OAK, MI 48072
Manager: CHRISTINE LAKING
3601 W 13 MILE RD
ROYAL OAK, MI 48072
Phone (248) 898-2691

Additional Remarks

FOR CD CTC DETROIT APCH AT 800-499-8181.

Instrument Procedures

There are no published instrument procedures at 32MI.

Some nearby airports with instrument procedures:

KVLL - Oakland/Troy Airport (2 nm NE)
KDET - Coleman A Young Municipal Airport (10 nm SE)
KPTK - Oakland County International Airport (13 nm NW)
1D2 - Canton-Plymouth-Mettetal Airport (15 nm SW)
KMTC - Selfridge Air National Guard Base (17 nm E)
57D - Ray Community Airport (19 nm NE)
Y47 - Oakland Southwest Airport (19 nm W)
D98 - Romeo State Airport (19 nm NE)
KDTW - Detroit Metropolitan Wayne County Airport (19 nm S)
 
Loc | Ops | Rwys | IFR | FBO | Links
Com | Nav | Svcs | Stats | Notes
Area around 32MI (William Beaumont Hospital Heliport)
 
Road maps at: MapQuest Bing Google
 
Aerial photo
No photo
 
Sectional chart

 
Airport distance calculator
Flying to William Beaumont Hospital Heliport? Find the distance to fly.

From to 32MI

Sunrise and sunset
Times for 12-Nov-2019
 Local
(UTC-5)
 Zulu
(UTC)
Morning civil twilight06:5111:51
Sunrise07:2112:21
Sunset17:1322:13
Evening civil twilight17:4322:43

Current date and time
Zulu (UTC)  12-Nov-2019 16:12:55
Local (UTC-5)  12-Nov-2019 11:12:55
 
METAR
KVLL 
2nm NE 
121555Z AUTO 32010G15KT 10SM CLR M06/M12 A3030 RMK AO2 T10581124
KDET 
10nm SE 
121553Z 32013G22KT 10SM CLR M06/M15 A3029 RMK AO2 SLP273 T10561150
KPTK 
13nm NW 
121553Z 33013G20KT 10SM FEW029 M07/M14 A3026 RMK AO2 SLP265 T10721144
KMTC 
18nm E 
121556Z 31013KT 10SM FEW040 FEW200 M06/M11 A3026 RMK AO2A SLP261 T10581113
CYQG 
18nm SE 
121500Z AUTO 31012G17KT 9SM CLR M06/M12 A3028 RMK SLP266
KDTW 
18nm S 
121553Z 31013KT 9SM FEW080 M06/M13 A3031 RMK AO2 SLP273 T10611133
TAF
KDET 
10nm SE 
121126Z 1212/1312 31013KT P6SM SCT040 BKN080 FM121800 29012G20KT P6SM BKN050 FM130000 25008KT P6SM SCT040
KPTK 
13nm NW 
121126Z 1212/1312 30010KT P6SM SCT025 SCT040 BKN080 TEMPO 1215/1218 BKN040 FM121800 29012G19KT P6SM SCT030 BKN050 FM130000 25008KT P6SM SCT035
KMTC 
18nm E 
121123Z 1211/1315 33009KT 6000 -SN OVC020 620209 QNH3009INS BECMG 1211/1212 33009KT 9999 NSW BKN025 620253 QNH3014INS BECMG 1214/1215 33012G18KT 9999 FEW035 QNH3021INS BECMG 1219/1220 28006KT 9999 FEW050 QNH3025INS TXM04/1218Z TNM17/1309Z LAST NO AMDS AFT 1211 NEXT 1212
CYQG 
18nm SE 
121138Z 1212/1312 31010G20KT 11/2SM -SN OVC020 TEMPO 1212/1213 6SM -SN OVC025 FM121300 32010G20KT P6SM SCT020 BKN060 TEMPO 1213/1215 2SM -SHSN OVC020 FM121500 31012G22KT P6SM BKN050 FM121800 31012G22KT P6SM SKC BECMG 1220/1222 30008KT BECMG 1308/1310 26006KT RMK FCST BASED ON AUTO OBS. NXT FCST BY 121800Z
KDTW 
18nm S 
121426Z 1214/1318 31013KT P6SM SCT060 SCT150 FM121900 29012G20KT P6SM BKN050 FM130000 25008KT P6SM SCT040 FM131200 19012KT P6SM OVC120
NOTAMs
Click for the latest NOTAMs
NOTAMs are issued by the DoD/FAA and will open in a separate window not controlled by AirNav.

 

 
 

Would you like to see your business listed on this page?

 If your business provides an interesting product or service to pilots, flight crews, aircraft, or users of the William Beaumont Hospital Heliport, you should consider listing it here.  To start the listing process, click on the button below
 
Add a business
 

Other Pages about William Beaumont Hospital Heliport

Update a link
 
Copyright © AirNav, LLC. All rights reserved. Privacy Policy  Contact